Gale Warning
Issued at: 5:00 PM TODAY , 19 February 2017
Gale Warning # 3 (Final)
For: strong to gale force winds associated with the northeast monsoon.

Gale Warning in PDF file



Weather Advisory
As of today, there is no Weather Advisory issued.
TODAY: 2017-02-20 03:51:22
EXPIRE:2017-02-18 10:56:58



Dams Water Level Update
As of 6 AM, 20 February  2017

General Flood Advisories - Regional
Issued 20 February 2017


Daily Basin Hydrological Forecast
Issued 20 February 2017




Monthly Climate Assessment and Outlook

La Niña-like conditions continue
Issued: 06 February 2017
updates shall be issued as appropriate.

Monthly Rainfall Forecast
RAINFALL FORECAST  (February - July 2017) 
UPDATED: 18 January 2017 


Regional Rainfall Forecast
Issued: 18 January 2017
Valid for: February - July 2017
Farm Weather Forecast and Advisories
ISSUED              : 8AM, MONDAY, FEBRUARY 20, 2017
VALID UNTIL      :  8AM, TUESDAY, FEBRUARY 21, 2017
FWFA:  N0. 17-051


Ten-Day Regional Agri-Weather Information

DECADE NO. 5  FEBRUARY 11- 20, 2017

PHILIPPINE AGRI-WEATHER FORECAST

The weather systems that will affect the country are northeast monsoon, tail-end of a cold front, and low pressure area (LPA).

During the early days of the forecast period, the regions of Eastern Visayas, CARAGA and Davao will experience rains and isolated thunderstorms while the regions of Ilocos, Cordillera, Cagayan Valley, Central Luzon and Bicol will have light rains. The LPA is expected to bring rains and isolated thunderstorms over Mindanao, Visayas and MIMAROPA at the midst of the decadal period. After that, the provinces of Aurora, Laguna and Quezon, and the regions of Cagayan Valley, Bicol, Eastern Visayas and CARAGA will experience rains and thunderstorms. The rest of Luzon will have light rains while the rest of the country will have partly cloudy to cloudy skies with isolated rains.

Moderate to strong northeasterly winds will blow over the whole country during the first half of the ten-day period. Afterwards, Luzon will gradually have moderate to strong winds coming from northeast to east while the rest of the country will have light to moderate winds coming from the east.

The seaboards of the whole country will be moderate to rough during the first half of the forecast period. After that, the coastal waters over Luzon will be moderate to rough while the rest of the country will have slight to moderate seas.

The eastern and central equatorial Pacific is in neutral condition.


Seasonal Climate Outlook
Issued:  20 January 2017
FOR January - June 2017
PDF 




Astronomical Diary
Issued 01 February 2017
National Astronomy Week (NAW), Famous Equilateral triangle in the sky and Annular Solar Eclipse (not visible in the Philippines)...




   PAGASA webmail  Learning Tools  Bidding 

  Training Activities  Vacancy  Research-and-Development

  Engineering  faqupdate  Publications 

TAF RPLL

192300Z 2000/2106 12006KT 9999 FEW025 SCT100 TX30/2006Z TN24/2022Z TEMPO 2000/2006 11009KT FEW023 BKN300 TEMPO 2006/2012 13012KT TEMPO 2018/2024 10007KT SCT023 BKN100=

TAF RPVM

192300Z 2000/2106 03008KT 9999 FEW020 SCT100 TEMPO 2000/2006 02013KT FEW020 BKN300 TEMPO 2018/2024 04007KT SCT020 BKN090=

TAF RPLB

192300Z 2000/2024 07008KT 9999 FEW020 BKN300 TX32/2006Z TN23/2021Z TEMPO 2000/2006 08012G22KT FEW020 BKN080=

TAF RPLC

192300Z 2000/2024 33008KT 9999 FEW020 SCT100 BKN300 TX29/2006Z TN24/2021Z TEMPO 2000/2006 06007KT SCT020 BKN100=

TAF RPLI

192300Z 2000/2024 11008KT 9999 FEW019 BKN290 TEMPO 2000/2006 34011KT SCT019 BKN100=

TAF RPVP

192300Z 2000/2024 09006KT 9999  FEW020 SCT250 TEMPO 2000/2006 11010KT FEW017CB FEW019 SCT080=

TAF RPVD

192300Z 2000/2024 04008KT 9999 FEW015 SCT220 TEMPO 2000/2006 07012KT FEW014CB SCT015 BKN080=

TAF RPMR

192300Z 2000/2024 36006KT  9999  FEW018 SCT080 BKN250 TEMPO 2000/2006 04010G16KT FEW017CB SCT018 BKN080=

TAF RPMD

192300Z 2000/2024 01006KT 9999 FEW016 SCT090 BKN290 TEMPO 2000/2006 05010KT 9000 –SHRA SCT015CB BKN090=

TAF RPMZ

192300Z 2000/2024 18004KT 9999 FEW018 SCT300 TEMPO 2000/2006 27002KT FEW017CB BKN100=

RPLL FORECAST TAKE-OFF CONDITION
TIME

(UTC)

WIND

(dddffKT)

TEMP

(°C)

QNH

(hPa)

TIME

(UTC)

WIND

(dddffKT)

TEMP

(°C)

QNH

(hPa)

0000

12005KT

26.5

1014.5

0400

12007KT

28.0

1013.0

0100

11004KT

27.0

1014.0

0500

10008KT

29.0

1012.0

0200

11003KT

27.5

1014.0

0600

11009KT

29.5

1012.0

0300

12005KT

28.0

1013.5

0700

12007KT

29.5

1011.0

ISSUED AT NAIA AMSS-WD/PAGASA-DOST FOR 2300UTC 19 FEBRUARY 2017
PREPARED BY:            CHH                  CHECKED BY:         MCM





payong pagasa on android The latest version of the official PAGASA app can now be downloaded on Google play store

Ceremonial Turn-over of JICA funded
Aparri and Guiuan Radar Stations
PAGASA Weather and Flood Forecasting Center (WFFC)
Agham Road, Diliman, Quezon City
03 February 2017

Read more ...

Weather Division is now  ISO 9001:2008 Certified
Proof has been furnished by means of an audit that the requirements of ISO 9001:2008 are met.

Read more ...